| time (UTC) | temp C | wind direction | speed KPH | gust KPH | rain 1hr cm | rain 24hr cm | rain mn cm | humidity % | barometer mb |
| 20260906100046 | 23 | 100 | 4.8 | 17.7 | 0.00 | 0.58 | 0.20 | 85 | 1013.0 |
| 20260906094549 | 23 | 5 | 8.0 | 24.1 | 0.00 | 0.58 | 0.20 | 85 | 1013.1 |
| 20260906093042 | 23 | 19 | 4.8 | 20.9 | 0.00 | 0.58 | 0.20 | 84 | 1012.9 |
| 20260906091546 | 23 | 18 | 1.6 | 12.9 | 0.00 | 0.58 | 0.20 | 84 | 1012.4 |
| 20260906090042 | 23 | 346 | 8.0 | 14.5 | 0.00 | 0.58 | 0.20 | 81 | 1012.1 |
| 20260906084537 | 23 | 101 | 0.0 | 3.2 | 0.03 | 0.58 | 0.20 | 80 | 1012.1 |
| 20260906083036 | 23 | 348 | 3.2 | 9.7 | 0.20 | 0.58 | 0.20 | 83 | 1012.2 |
| 20260906081540 | 23 | 256 | 0.0 | 8.0 | 0.20 | 0.58 | 0.20 | 80 | 1012.1 |
| 20260906080034 | 23 | 210 | 6.4 | 9.7 | 0.20 | 0.58 | 0.20 | 82 | 1012.2 |
| 20260906074528 | 24 | 315 | 9.7 | 20.9 | 0.15 | 0.53 | 0.15 | 85 | 1012.5 |
| 20260906073025 | 25 | 360 | 3.2 | 14.5 | 0.00 | 0.38 | 0.00 | 77 | 1012.6 |
| 20260906071524 | 25 | 41 | 0.0 | 0.0 | 0.00 | 0.38 | 0.00 | 75 | 1012.6 |
| 20260906070023 | 25 | 41 | 0.0 | 6.4 | 0.00 | 0.38 | 0.00 | 75 | 1012.5 |
| 20260906064527 | 25 | 208 | 0.0 | 3.2 | 0.00 | 0.38 | 0.00 | 75 | 1012.3 |
| 20260906063021 | 25 | 211 | 0.0 | 8.0 | 0.00 | 0.38 | 0.00 | 75 | 1012.0 |
| 20260906061519 | 25 | 203 | 1.6 | 6.4 | 0.00 | 0.38 | 0.00 | 75 | 1012.2 |
| 20260906060017 | 25 | 186 | 1.6 | 8.0 | 0.00 | 0.38 | 0.00 | 75 | 1012.4 |
| 20260906054514 | 25 | 205 | 0.0 | 4.8 | 0.00 | 0.38 | 0.00 | 76 | 1012.7 |
| 20260906053013 | 25 | 329 | 1.6 | 4.8 | 0.00 | 0.38 | 0.00 | 76 | 1012.6 |
| 20260906051514 | 24 | 329 | 0.0 | 0.0 | 0.00 | 0.38 | 0.00 | 78 | 1012.9 |
| 20260906050014 | 24 | 329 | 0.0 | 0.0 | 0.00 | 0.38 | 0.00 | 79 | 1013.1 |
| 20260906044506 | 24 | 329 | 0.0 | 4.8 | 0.25 | 0.38 | 0.38 | 82 | 1013.0 |
| 20260906043009 | 25 | 331 | 0.0 | 1.6 | 0.38 | 0.38 | 0.38 | 84 | 1013.0 |
| 20260906041504 | 25 | 329 | 0.0 | 4.8 | 0.38 | 0.38 | 0.38 | 85 | 1012.9 |
| 20260906040008 | 26 | 336 | 1.6 | 6.4 | 0.38 | 0.38 | 0.38 | 84 | 1012.7 |
| 20260906034502 | 27 | 9 | 3.2 | 8.0 | 0.08 | 0.08 | 0.08 | 83 | 1013.5 |
| 20260906033003 | 27 | 90 | 4.8 | 9.7 | 0.00 | 0.00 | 0.00 | 83 | 1013.5 |
| 20260906031503 | 27 | 228 | 0.0 | 3.2 | 0.00 | 0.00 | 0.00 | 83 | 1013.0 |
| 20260906030004 | 27 | 228 | 0.0 | 4.8 | 0.00 | 0.00 | 0.00 | 83 | 1012.7 |
| 20260906024500 | 27 | 227 | 3.2 | 4.8 | 0.00 | 0.00 | 0.00 | 83 | 1012.6 |
| 20260906023112 | 27 | 229 | 0.0 | 4.8 | 0.00 | 0.00 | 0.00 | 82 | 1012.5 |
| 20260906023001 | 27 | 229 | 0.0 | 4.8 | 0.00 | 0.00 | 0.00 | 82 | 1012.5 |
| 20260906021600 | 27 | 230 | 0.0 | 3.2 | 0.00 | 0.00 | 0.00 | 81 | 1012.4 |
| 20260906014559 | 28 | 227 | 0.0 | 4.8 | 0.00 | 0.00 | 0.00 | 79 | 1012.2 |
| 20260906013058 | 29 | 229 | 1.6 | 8.0 | 0.00 | 0.00 | 0.00 | 75 | 1011.8 |
| 20260906011605 | 29 | 279 | 1.6 | 4.8 | 0.00 | 0.00 | 0.00 | 74 | 1011.4 |
| 20260906004600 | 29 | 252 | 0.0 | 1.6 | 0.00 | 0.00 | 0.00 | 75 | 1011.0 |
| 20260906003057 | 30 | 261 | 0.0 | 8.0 | 0.00 | 0.00 | 0.00 | 73 | 1011.0 |
| 20260906001556 | 30 | 222 | 0.0 | 11.3 | 0.00 | 0.00 | 0.00 | 70 | 1011.0 |
| 20260905234556 | 31 | 242 | 6.4 | 12.9 | 0.00 | 0.00 | 0.00 | 64 | 1011.1 |
| 20260905233102 | 31 | 274 | 0.0 | 0.0 | 0.00 | 0.00 | 0.00 | 64 | 1011.0 |
| 20260905231610 | 32 | 274 | 0.0 | 4.8 | 0.00 | 0.00 | 0.00 | 62 | 1010.9 |
| 20260905230059 | 32 | 274 | 1.6 | 4.8 | 0.00 | 0.00 | 0.00 | 59 | 1010.9 |
| 20260905224553 | 33 | 265 | 1.6 | 8.0 | 0.00 | 0.00 | 0.00 | 55 | 1010.9 |
| 20260905223053 | 32 | 108 | 0.0 | 0.0 | 0.00 | 0.00 | 0.00 | 61 | 1010.7 |
| 20260905221603 | 32 | 108 | 0.0 | 0.0 | 0.00 | 0.00 | 0.00 | 59 | 1010.6 |
| 20260905220052 | 33 | 108 | 0.0 | 4.8 | 0.00 | 0.00 | 0.00 | 58 | 1010.8 |
| 20260905214601 | 33 | 121 | 1.6 | 6.4 | 0.00 | 0.00 | 0.00 | 57 | 1010.8 |
| 20260905213052 | 33 | 118 | 3.2 | 6.4 | 0.00 | 0.00 | 0.00 | 53 | 1010.8 |
| 20260905211550 | 35 | 92 | 1.6 | 8.0 | 0.00 | 0.00 | 0.00 | 50 | 1010.9 |
| 20260905210059 | 36 | 85 | 0.0 | 11.3 | 0.00 | 0.00 | 0.00 | 45 | 1010.9 |
| 20260905204546 | 37 | 317 | 0.0 | 6.4 | 0.00 | 0.00 | 0.00 | 46 | 1011.1 |
| 20260905203045 | 37 | 5 | 3.2 | 8.0 | 0.00 | 0.00 | 0.00 | 43 | 1011.2 |
| 20260905201544 | 36 | 82 | 3.2 | 12.9 | 0.00 | 0.00 | 0.00 | 44 | 1011.3 |
| 20260905200046 | 36 | 136 | 3.2 | 8.0 | 0.00 | 0.00 | 0.00 | 44 | 1011.4 |
| 20260905194539 | 36 | 141 | 1.6 | 8.0 | 0.00 | 0.00 | 0.00 | 45 | 1011.7 |
| 20260905193041 | 36 | 120 | 4.8 | 12.9 | 0.00 | 0.00 | 0.00 | 43 | 1011.9 |
| 20260905191534 | 36 | 97 | 1.6 | 12.9 | 0.00 | 0.00 | 0.00 | 45 | 1012.1 |
| 20260905190041 | 36 | 82 | 4.8 | 12.9 | 0.00 | 0.00 | 0.00 | 44 | 1012.3 |
| 20260905184533 | 37 | 71 | 1.6 | 9.7 | 0.00 | 0.00 | 0.00 | 43 | 1012.5 |
| 20260905183026 | 35 | 79 | 4.8 | 14.5 | 0.00 | 0.00 | 0.00 | 46 | 1012.8 |
| 20260905181524 | 35 | 49 | 1.6 | 8.0 | 0.00 | 0.00 | 0.00 | 44 | 1013.0 |
| 20260905180028 | 36 | 76 | 4.8 | 9.7 | 0.00 | 0.00 | 0.00 | 48 | 1013.3 |
| 20260905174517 | 36 | 73 | 3.2 | 6.4 | 0.00 | 0.00 | 0.00 | 48 | 1013.5 |
| 20260905173016 | 35 | 27 | 1.6 | 12.9 | 0.00 | 0.00 | 0.00 | 50 | 1013.7 |
| 20260905171516 | 34 | 43 | 0.0 | 3.2 | 0.00 | 0.00 | 0.00 | 55 | 1013.8 |
| 20260905170015 | 34 | 38 | 0.0 | 8.0 | 0.00 | 0.00 | 0.00 | 53 | 1014.1 |
| 20260905164512 | 33 | 175 | 0.0 | 11.3 | 0.00 | 0.00 | 0.00 | 54 | 1014.3 |
| 20260905163010 | 36 | 312 | 1.6 | 8.0 | 0.00 | 0.00 | 0.00 | 49 | 1014.3 |
| 20260905161521 | 36 | 90 | 3.2 | 9.7 | 0.00 | 0.00 | 0.00 | 50 | 1014.5 |
| 20260905160007 | 35 | 15 | 4.8 | 12.9 | 0.00 | 0.00 | 0.00 | 51 | 1014.5 |
| 20260905154503 | 34 | 336 | 6.4 | 16.1 | 0.00 | 0.00 | 0.00 | 53 | 1014.5 |
| 20260905153002 | 35 | 112 | 4.8 | 11.3 | 0.00 | 0.00 | 0.00 | 52 | 1014.5 |
| 20260905151559 | 34 | 28 | 3.2 | 8.0 | 0.00 | 0.00 | 0.00 | 53 | 1014.6 |
| 20260905150056 | 33 | 5 | 4.8 | 11.3 | 0.00 | 0.00 | 0.00 | 54 | 1014.6 |
| 20260905144552 | 33 | 25 | 6.4 | 14.5 | 0.00 | 0.00 | 0.00 | 57 | 1014.6 |
| 20260905143048 | 31 | 5 | 3.2 | 8.0 | 0.00 | 0.00 | 0.00 | 62 | 1014.7 |
| 20260905141544 | 30 | 355 | 1.6 | 11.3 | 0.00 | 0.00 | 0.00 | 69 | 1014.7 |
| 20260905140039 | 29 | 332 | 3.2 | 9.7 | 0.00 | 0.00 | 0.00 | 71 | 1014.9 |
| 20260905134535 | 27 | 350 | 4.8 | 9.7 | 0.00 | 0.00 | 0.00 | 78 | 1014.9 |
| 20260905133031 | 26 | 317 | 3.2 | 8.0 | 0.00 | 0.00 | 0.00 | 84 | 1015.1 |
| 20260905131527 | 25 | 107 | 0.0 | 0.0 | 0.00 | 0.00 | 0.00 | 84 | 1015.1 |
| 20260905130023 | 25 | 107 | 0.0 | 0.0 | 0.00 | 0.00 | 0.00 | 82 | 1015.2 |
| 20260905124523 | 23 | 107 | 0.0 | 0.0 | 0.00 | 0.00 | 0.00 | 79 | 1015.0 |
| 20260905123022 | 23 | 107 | 0.0 | 0.0 | 0.00 | 0.00 | 0.00 | 78 | 1015.1 |
| 20260905121521 | 23 | 107 | 0.0 | 0.0 | 0.00 | 0.00 | 0.00 | 78 | 1015.0 |
| 20260905120034 | 23 | 107 | 0.0 | 0.0 | 0.00 | 0.00 | 0.00 | 78 | 1014.8 |
| 20260905114518 | 22 | 107 | 0.0 | 0.0 | 0.00 | 0.00 | 0.00 | 79 | 1014.9 |
| 20260905113017 | 22 | 107 | 0.0 | 0.0 | 0.00 | 0.00 | 0.00 | 80 | 1014.8 |
| 20260905111516 | 22 | 107 | 0.0 | 0.0 | 0.00 | 0.00 | 0.00 | 81 | 1014.6 |
| 20260905110019 | 23 | 107 | 0.0 | 0.0 | 0.00 | 0.00 | 0.00 | 81 | 1014.5 |
| 20260905104512 | 23 | 107 | 0.0 | 0.0 | 0.00 | 0.00 | 0.00 | 81 | 1014.5 |
| 20260905103022 | 23 | 107 | 0.0 | 0.0 | 0.00 | 0.00 | 0.00 | 81 | 1014.5 |
| 20260905101509 | 23 | 107 | 0.0 | 0.0 | 0.00 | 0.00 | 0.00 | 81 | 1014.2 |